createdAt,value
2022-12-24T00:00:58.630Z,100845.13
2022-12-24T00:03:29.753Z,100834.25
2022-12-24T00:06:00.332Z,100837.88
2022-12-24T00:08:30.153Z,100841.00
2022-12-24T00:11:00.101Z,100840.19
2022-12-24T00:13:32.052Z,100835.75
2022-12-24T00:16:02.948Z,100837.75
2022-12-24T00:18:33.580Z,100852.94
2022-12-24T00:21:04.450Z,100850.13
2022-12-24T00:23:34.909Z,100840.88
2022-12-24T00:26:05.031Z,100840.88
2022-12-24T00:28:36.859Z,100847.66
2022-12-24T00:31:13.790Z,100852.44
2022-12-24T00:33:44.550Z,100849.16
2022-12-24T00:36:14.439Z,100855.94
2022-12-24T00:38:45.554Z,100840.28
2022-12-24T00:41:26.621Z,100844.97
2022-12-24T00:44:01.527Z,100834.44
2022-12-24T00:46:35.290Z,100839.22
2022-12-24T00:49:07.284Z,100852.41
2022-12-24T00:51:38.249Z,100841.22
2022-12-24T00:54:09.901Z,100845.66
2022-12-24T00:56:39.671Z,100844.00
2022-12-24T00:59:12.049Z,100834.81
2022-12-24T01:01:42.595Z,100841.56
2022-12-24T01:04:29.265Z,100830.38
2022-12-24T01:06:59.390Z,100829.88
2022-12-24T01:09:29.646Z,100840.25
2022-12-24T01:11:59.955Z,100842.25
2022-12-24T01:14:32.125Z,100838.63
2022-12-24T01:17:01.859Z,100840.13
2022-12-24T01:19:31.566Z,100839.31
2022-12-24T01:22:01.863Z,100831.25
2022-12-24T01:24:32.177Z,100831.56
2022-12-24T01:27:02.490Z,100836.84
2022-12-24T01:29:34.491Z,100830.91
2022-12-24T01:32:04.467Z,100825.66
2022-12-24T01:34:34.504Z,100825.97
2022-12-24T01:37:04.756Z,100830.75
2022-12-24T01:39:35.210Z,100828.78
2022-12-24T01:42:22.263Z,100824.69
2022-12-24T01:44:56.819Z,100825.38
2022-12-24T01:47:32.413Z,100820.13
2022-12-24T01:50:15.803Z,100817.69
2022-12-24T01:52:46.599Z,100820.81
2022-12-24T01:55:20.593Z,100826.75
2022-12-24T01:57:57.372Z,100822.31
2022-12-24T02:00:29.992Z,100819.88
2022-12-24T02:03:00.733Z,100819.03
2022-12-24T02:05:38.775Z,100826.28
2022-12-24T02:08:11.575Z,100821.47
2022-12-24T02:10:42.002Z,100819.03
2022-12-24T02:13:13.695Z,100816.72
2022-12-24T02:16:05.197Z,100815.88
2022-12-24T02:18:49.127Z,100821.03
2022-12-24T02:21:53.854Z,100813.78
2022-12-24T02:25:03.603Z,100819.72
2022-12-24T02:27:56.920Z,100820.06
2022-12-24T02:30:37.056Z,100823.72
2022-12-24T02:33:26.257Z,100811.69
2022-12-24T02:36:06.264Z,100813.66
2022-12-24T02:38:44.438Z,100812.50
2022-12-24T02:41:22.948Z,100810.53
2022-12-24T02:43:55.831Z,100816.13
2022-12-24T02:46:32.921Z,100815.75
2022-12-24T02:49:04.414Z,100824.16
2022-12-24T02:51:35.423Z,100818.56
2022-12-24T02:54:05.436Z,100826.97
2022-12-24T02:56:54.018Z,100823.34
2022-12-24T02:59:52.218Z,100821.72
2022-12-24T03:02:38.913Z,100823.34
2022-12-24T03:05:25.400Z,100822.88
2022-12-24T03:08:06.302Z,100830.47
2022-12-24T03:10:49.214Z,100825.66
2022-12-24T03:13:22.511Z,100832.09
2022-12-24T03:15:54.502Z,100836.88
2022-12-24T03:18:29.450Z,100837.69
2022-12-24T03:21:08.179Z,100839.31
2022-12-24T03:23:38.557Z,100843.31
2022-12-24T03:26:13.500Z,100847.72
2022-12-24T03:28:45.930Z,100849.72
2022-12-24T03:31:17.527Z,100862.53
2022-12-24T03:33:50.514Z,100861.38
2022-12-24T03:36:20.295Z,100863.34
2022-12-24T03:38:50.402Z,100858.59
2022-12-24T03:41:20.747Z,100859.38
2022-12-24T03:43:51.083Z,100860.91
2022-12-24T03:46:21.368Z,100860.91
2022-12-24T03:48:53.493Z,100864.50
2022-12-24T03:51:25.859Z,100864.84
2022-12-24T03:53:57.611Z,100864.06
2022-12-24T03:56:29.070Z,100878.38
2022-12-24T03:58:59.375Z,100869.16
2022-12-24T04:01:29.398Z,100869.16
2022-12-24T04:04:01.210Z,100868.34
2022-12-24T04:06:31.482Z,100873.47
2022-12-24T04:09:05.311Z,100866.56
2022-12-24T04:11:35.974Z,100865.75
2022-12-24T04:14:06.259Z,100870.53
2022-12-24T04:16:36.675Z,100864.91
2022-12-24T04:19:08.191Z,100867.28
2022-12-24T04:21:38.442Z,100872.03
2022-12-24T04:24:08.913Z,100873.19
2022-12-24T04:26:38.856Z,100875.19
2022-12-24T04:29:10.042Z,100879.63
2022-12-24T04:31:40.583Z,100878.78
2022-12-24T04:34:12.360Z,100886.38
2022-12-24T04:36:42.238Z,100896.72
2022-12-24T04:39:11.941Z,100895.44
2022-12-24T04:41:42.218Z,100896.28
2022-12-24T04:44:13.226Z,100888.69
2022-12-24T04:46:43.649Z,100892.28
2022-12-24T04:49:15.534Z,100893.47
2022-12-24T04:51:45.623Z,100894.63
2022-12-24T04:54:16.215Z,100897.44
2022-12-24T04:56:46.555Z,100901.41
2022-12-24T04:59:16.751Z,100908.94
2022-12-24T05:01:47.628Z,100909.78
2022-12-24T05:04:19.737Z,100897.75
2022-12-24T05:06:50.115Z,100903.34
2022-12-24T05:09:20.206Z,100910.94
2022-12-24T05:11:50.501Z,100911.44
2022-12-24T05:14:20.969Z,100913.88
2022-12-24T05:16:51.328Z,100914.69
2022-12-24T05:19:22.827Z,100931.47
2022-12-24T05:22:14.952Z,100933.94
2022-12-24T05:25:01.718Z,100939.56
2022-12-24T05:27:32.788Z,100938.72
2022-12-24T05:30:03.113Z,100939.88
2022-12-24T05:32:32.860Z,100940.72
2022-12-24T05:35:04.533Z,100943.16
2022-12-24T05:37:34.823Z,100943.63
2022-12-24T05:40:04.997Z,100939.69
2022-12-24T05:42:35.620Z,100951.38
2022-12-24T05:45:06.359Z,100945.06
2022-12-24T05:47:42.851Z,100948.34
2022-12-24T05:50:16.601Z,100946.88
2022-12-24T05:52:46.573Z,100960.50
2022-12-24T05:55:17.085Z,100958.53
2022-12-24T05:57:47.890Z,100955.72
2022-12-24T06:00:19.168Z,100960.50
2022-12-24T06:02:49.612Z,100958.06
2022-12-24T06:05:21.706Z,100957.22
2022-12-24T06:07:52.007Z,100965.28
2022-12-24T06:10:21.920Z,100963.78
2022-12-24T06:12:52.349Z,100964.72
2022-12-24T06:15:24.339Z,100962.56
2022-12-24T06:17:54.518Z,100963.00
2022-12-24T06:20:27.143Z,100964.56
2022-12-24T06:22:57.079Z,100959.22
2022-12-24T06:25:27.462Z,100951.22
2022-12-24T06:27:57.494Z,100963.75
2022-12-24T06:30:27.992Z,100960.28
2022-12-24T06:32:58.207Z,100966.56
2022-12-24T06:35:30.609Z,100968.34
2022-12-24T06:38:00.872Z,100968.84
2022-12-24T06:40:31.870Z,100973.63
2022-12-24T06:43:02.130Z,100977.63
2022-12-24T06:45:32.608Z,100988.25
2022-12-24T06:48:03.659Z,100985.56
2022-12-24T06:50:36.917Z,100986.38
2022-12-24T06:53:07.777Z,100975.84
2022-12-24T06:55:38.464Z,100974.94
2022-12-24T06:58:09.035Z,100975.97
2022-12-24T07:00:39.490Z,100979.00
2022-12-24T07:03:09.770Z,100983.34
2022-12-24T07:05:43.755Z,100991.63
2022-12-24T07:08:13.752Z,100990.34
2022-12-24T07:10:46.486Z,100993.50
2022-12-24T07:13:19.516Z,100996.78
2022-12-24T07:15:49.955Z,101001.56
2022-12-24T07:18:20.304Z,100998.78
2022-12-24T07:20:52.718Z,101003.94
2022-12-24T07:23:22.534Z,101004.06
2022-12-24T07:25:52.980Z,101007.00
2022-12-24T07:28:27.737Z,101003.38
2022-12-24T07:30:58.869Z,101002.56
2022-12-24T07:33:30.025Z,101006.06
2022-12-24T07:36:08.773Z,101012.38
2022-12-24T07:38:40.239Z,101013.91
2022-12-24T07:41:10.446Z,101004.19
2022-12-24T07:43:40.181Z,101015.75
2022-12-24T07:46:10.754Z,101009.66
2022-12-24T07:48:41.563Z,101003.56
2022-12-24T07:51:13.366Z,101004.25
2022-12-24T07:53:48.126Z,100996.53
2022-12-24T07:56:19.019Z,101001.72
2022-12-24T07:58:48.996Z,100986.03
2022-12-24T08:01:18.992Z,100986.03
2022-12-24T08:03:51.765Z,100979.38
2022-12-24T08:06:24.207Z,100977.88
2022-12-24T08:08:54.007Z,100969.31
2022-12-24T08:11:24.319Z,100971.97
2022-12-24T08:13:54.107Z,100969.09
2022-12-24T08:16:24.638Z,100961.75
2022-12-24T08:18:54.722Z,100966.00
2022-12-24T08:21:26.600Z,100964.84
2022-12-24T08:23:56.280Z,100966.06
2022-12-24T08:26:26.630Z,100959.38
2022-12-24T08:28:56.909Z,100958.81
2022-12-24T08:31:27.496Z,100959.16
2022-12-24T08:33:57.352Z,100955.72
2022-12-24T08:36:28.468Z,100961.38
2022-12-24T08:38:58.729Z,100965.19
2022-12-24T08:41:29.108Z,100968.84
2022-12-24T08:43:59.595Z,100966.75
2022-12-24T08:46:30.427Z,100969.03
2022-12-24T08:49:00.883Z,100969.22
2022-12-24T08:51:33.010Z,100975.44
2022-12-24T08:54:03.332Z,100972.78
2022-12-24T08:56:34.933Z,100964.44
2022-12-24T08:59:05.108Z,100966.56
2022-12-24T09:01:35.778Z,100964.59
2022-12-24T09:04:05.945Z,100970.00
2022-12-24T09:06:38.525Z,100969.38
2022-12-24T09:09:09.773Z,100976.00
2022-12-24T09:11:40.191Z,100981.78
2022-12-24T09:14:10.478Z,100974.34
2022-12-24T09:16:41.107Z,100972.06
2022-12-24T09:19:10.780Z,100974.22
2022-12-24T09:21:42.771Z,100971.19
2022-12-24T09:24:13.259Z,100963.72
2022-12-24T09:26:43.934Z,100961.53
2022-12-24T09:29:14.707Z,100965.69
2022-12-24T09:31:45.164Z,100951.44
2022-12-24T09:34:14.980Z,100955.31
2022-12-24T09:36:47.038Z,100942.72
2022-12-24T09:39:17.734Z,100942.59
2022-12-24T09:42:02.205Z,100931.28
2022-12-24T09:44:45.456Z,100933.97
2022-12-24T09:47:28.991Z,100931.50
2022-12-24T09:50:04.222Z,100937.03
2022-12-24T09:52:41.395Z,100937.41
2022-12-24T09:55:30.811Z,100935.25
2022-12-24T09:58:04.780Z,100939.13
2022-12-24T10:00:46.034Z,100932.59
2022-12-24T10:03:20.615Z,100936.47
2022-12-24T10:06:03.540Z,100940.81
2022-12-24T10:08:51.193Z,100947.88
2022-12-24T10:11:32.452Z,100960.50
2022-12-24T10:14:29.260Z,100954.31
2022-12-24T10:17:20.238Z,100964.16
2022-12-24T10:20:02.327Z,100965.13
2022-12-24T10:22:44.377Z,100962.91
2022-12-24T10:25:25.405Z,100965.13
2022-12-24T10:28:01.258Z,100972.59
2022-12-24T10:30:32.430Z,100973.19
2022-12-24T10:33:04.017Z,100967.78
2022-12-24T10:35:46.482Z,100967.19
2022-12-24T10:38:17.007Z,100963.00
2022-12-24T10:40:52.874Z,100955.63
2022-12-24T10:43:27.260Z,100959.50
2022-12-24T10:46:01.323Z,100956.09
2022-12-24T10:48:42.307Z,100955.84
2022-12-24T10:51:23.532Z,100953.97
2022-12-24T10:54:02.671Z,100951.28
2022-12-24T10:56:34.225Z,100972.16
2022-12-24T10:59:04.545Z,100956.59
2022-12-24T11:01:49.839Z,100943.47
2022-12-24T11:04:23.932Z,100948.47
2022-12-24T11:07:00.256Z,100951.50
2022-12-24T11:09:34.527Z,100961.31
2022-12-24T11:12:18.502Z,100954.75
2022-12-24T11:14:48.862Z,100959.75
2022-12-24T11:17:25.647Z,100959.97
2022-12-24T11:19:55.888Z,100966.13
2022-12-24T11:22:30.655Z,100966.69
2022-12-24T11:25:21.432Z,100967.22
2022-12-24T11:27:54.741Z,100963.00
2022-12-24T11:30:35.778Z,100964.31
2022-12-24T11:33:25.630Z,100969.00
2022-12-24T11:36:03.347Z,100959.97
2022-12-24T11:38:36.221Z,100961.81
2022-12-24T11:41:11.837Z,100949.66
2022-12-24T11:43:48.288Z,100959.88
2022-12-24T11:46:24.078Z,100962.22
2022-12-24T11:49:17.738Z,100976.88
2022-12-24T11:52:25.534Z,100987.44
2022-12-24T11:55:19.495Z,100992.44
2022-12-24T11:58:00.850Z,100992.28
2022-12-24T12:00:33.495Z,100989.03
2022-12-24T12:03:13.053Z,100991.66
2022-12-24T12:05:43.512Z,100992.66
2022-12-24T12:08:22.786Z,100988.25
2022-12-24T12:10:57.062Z,100986.13
2022-12-24T12:13:35.249Z,100982.50
2022-12-24T12:16:20.949Z,100980.84
2022-12-24T12:19:01.888Z,100989.25
2022-12-24T12:21:44.031Z,100983.31
2022-12-24T12:24:28.261Z,100989.72
2022-12-24T12:27:18.204Z,100983.63
2022-12-24T12:29:56.696Z,100993.69
2022-12-24T12:32:39.766Z,100992.53
2022-12-24T12:35:28.505Z,101001.25
2022-12-24T12:38:03.625Z,100999.28
2022-12-24T12:41:03.732Z,101002.06
2022-12-24T12:43:54.912Z,101006.84
2022-12-24T12:46:37.660Z,100997.31
2022-12-24T12:49:30.277Z,100997.63
2022-12-24T12:52:15.772Z,100997.97
2022-12-24T12:55:23.892Z,101003.22
2022-12-24T12:58:01.250Z,101002.41
2022-12-24T13:00:38.882Z,101004.06
2022-12-24T13:04:05.374Z,101009.66
2022-12-24T13:07:35.848Z,101014.09
2022-12-24T13:10:51.019Z,101023.78
2022-12-24T13:14:16.572Z,101019.84
2022-12-24T13:17:41.289Z,101023.13
2022-12-24T13:20:26.632Z,101024.41
2022-12-24T13:23:04.651Z,101030.50
2022-12-24T13:25:40.614Z,101032.94
2022-12-24T13:28:39.117Z,101038.22
2022-12-24T13:31:31.419Z,101050.22
2022-12-24T13:34:06.885Z,101058.28
2022-12-24T13:37:23.554Z,101061.06
2022-12-24T13:40:24.574Z,101066.22
2022-12-24T13:43:12.871Z,101072.13
2022-12-24T13:45:52.713Z,101072.13
2022-12-24T13:48:36.845Z,101067.03
2022-12-24T13:51:27.718Z,101072.25
2022-12-24T13:54:02.730Z,101068.31
2022-12-24T13:56:39.064Z,101066.34
2022-12-24T13:59:39.256Z,101057.13
2022-12-24T14:02:23.538Z,101050.38
2022-12-24T14:04:55.344Z,101043.13
2022-12-24T14:07:25.784Z,101041.50
2022-12-24T14:09:56.333Z,101043.81
2022-12-24T14:12:54.473Z,101052.22
2022-12-24T14:16:05.097Z,101058.13
2022-12-24T14:18:41.146Z,101050.09
2022-12-24T14:21:23.048Z,101053.69
2022-12-24T14:23:58.464Z,101047.78
2022-12-24T14:26:34.428Z,101053.03
2022-12-24T14:29:24.449Z,101061.91
2022-12-24T14:31:56.950Z,101054.31
2022-12-24T14:34:28.512Z,101058.75
2022-12-24T14:37:02.457Z,101059.25
2022-12-24T14:39:38.457Z,101043.28
2022-12-24T14:42:31.411Z,101037.22
2022-12-24T14:45:21.421Z,101044.78
2022-12-24T14:48:03.707Z,101051.88
2022-12-24T14:51:01.907Z,101049.06
2022-12-24T14:54:06.270Z,101043.81
2022-12-24T14:56:36.682Z,101050.09
2022-12-24T14:59:19.212Z,101056.50
2022-12-24T15:01:51.604Z,101051.72
2022-12-24T15:04:21.502Z,101059.28
2022-12-24T15:06:57.945Z,101068.53
2022-12-24T15:09:34.327Z,101069.69
2022-12-24T15:12:06.039Z,101069.19
2022-12-24T15:14:46.249Z,101076.78
2022-12-24T15:17:18.649Z,101075.94
2022-12-24T15:19:54.232Z,101077.09
2022-12-24T15:22:30.501Z,101077.44
2022-12-24T15:25:01.046Z,101068.19
2022-12-24T15:27:35.202Z,101068.19
2022-12-24T15:30:17.934Z,101066.25
2022-12-24T15:32:52.572Z,101057.00
2022-12-24T15:35:53.370Z,101065.41
2022-12-24T15:38:32.241Z,101058.19
2022-12-24T15:41:07.528Z,101058.50
2022-12-24T15:43:43.212Z,101064.59
2022-12-24T15:46:20.952Z,101065.41
2022-12-24T15:48:55.201Z,101057.84
2022-12-24T15:51:29.779Z,101057.00
2022-12-24T15:54:04.421Z,101058.50
2022-12-24T15:56:40.187Z,101068.41
2022-12-24T15:59:33.090Z,101069.91
2022-12-24T16:02:43.322Z,101062.53
2022-12-24T16:05:40.749Z,101071.56
2022-12-24T16:08:28.455Z,101076.34
2022-12-24T16:11:16.856Z,101067.13
2022-12-24T16:14:13.361Z,101076.34
2022-12-24T16:16:48.975Z,101078.31
2022-12-24T16:19:24.583Z,101079.16
2022-12-24T16:21:59.814Z,101085.22
2022-12-24T16:24:33.325Z,101089.66
2022-12-24T16:27:05.447Z,101086.53
2022-12-24T16:29:35.809Z,101087.84
2022-12-24T16:32:06.286Z,101089.00
2022-12-24T16:34:36.932Z,101098.03
2022-12-24T16:37:08.595Z,101093.94
2022-12-24T16:39:38.687Z,101096.25
2022-12-24T16:42:25.461Z,101101.03
2022-12-24T16:44:56.333Z,101096.59
2022-12-24T16:47:37.163Z,101095.44
2022-12-24T16:50:18.070Z,101101.03
2022-12-24T16:52:49.951Z,101099.88
2022-12-24T16:55:20.543Z,101109.09
2022-12-24T16:57:50.319Z,101102.34
2022-12-24T17:00:23.538Z,101115.16
2022-12-24T17:02:53.838Z,101107.28
2022-12-24T17:05:24.597Z,101113.31
2022-12-24T17:07:56.755Z,101115.81
2022-12-24T17:10:26.977Z,101113.50
2022-12-24T17:12:58.193Z,101119.56
2022-12-24T17:15:28.215Z,101113.66
2022-12-24T17:17:58.657Z,101116.94
2022-12-24T17:20:29.140Z,101108.56
2022-12-24T17:23:01.964Z,101114.47
2022-12-24T17:25:32.275Z,101121.22
2022-12-24T17:28:02.372Z,101124.34
2022-12-24T17:30:32.418Z,101122.38
2022-12-24T17:33:02.036Z,101135.53
2022-12-24T17:35:32.335Z,101137.19
2022-12-24T17:38:04.297Z,101138.84
2022-12-24T17:40:34.765Z,101140.47
2022-12-24T17:43:05.169Z,101140.47
2022-12-24T17:45:35.708Z,101138.50
2022-12-24T17:48:05.742Z,101132.09
2022-12-24T17:50:39.338Z,101136.84
2022-12-24T17:53:11.636Z,101144.44
2022-12-24T17:55:43.689Z,101135.19
2022-12-24T17:58:15.666Z,101139.97
2022-12-24T18:00:46.017Z,101141.94
2022-12-24T18:03:16.933Z,101146.72
2022-12-24T18:05:46.921Z,101145.59
2022-12-24T18:08:19.378Z,101154.78
2022-12-24T18:10:49.927Z,101146.38
2022-12-24T18:13:20.246Z,101144.44
2022-12-24T18:15:50.544Z,101145.59
2022-12-24T18:18:21.033Z,101139.97
2022-12-24T18:20:50.604Z,101143.09
2022-12-24T18:23:22.143Z,101149.53
2022-12-24T18:25:52.405Z,101153.13
2022-12-24T18:28:22.138Z,101151.50
2022-12-24T18:31:00.920Z,101155.13
2022-12-24T18:33:32.069Z,101155.47
2022-12-24T18:36:02.560Z,101157.78
2022-12-24T18:38:35.509Z,101160.56
2022-12-24T18:41:07.959Z,101148.53
2022-12-24T18:43:38.499Z,101157.28
2022-12-24T18:46:13.049Z,101150.88
2022-12-24T18:48:43.981Z,101147.25
2022-12-24T18:51:14.328Z,101155.63
2022-12-24T18:53:46.832Z,101153.69
2022-12-24T18:56:19.974Z,101162.88
2022-12-24T18:58:50.505Z,101155.63
2022-12-24T19:01:23.627Z,101157.28
2022-12-24T19:03:55.116Z,101162.06
2022-12-24T19:06:26.541Z,101169.63
2022-12-24T19:08:59.625Z,101164.38
2022-12-24T19:11:34.643Z,101170.28
2022-12-24T19:14:07.831Z,101166.66
2022-12-24T19:16:40.583Z,101175.41
2022-12-24T19:19:14.280Z,101181.81
2022-12-24T19:21:44.600Z,101180.50
2022-12-24T19:24:16.619Z,101179.66
2022-12-24T19:26:46.859Z,101184.44
2022-12-24T19:29:17.629Z,101186.41
2022-12-24T19:31:48.053Z,101191.19
2022-12-24T19:34:18.430Z,101193.19
2022-12-24T19:36:48.559Z,101195.97
2022-12-24T19:39:22.333Z,101193.19
2022-12-24T19:41:55.865Z,101194.34
2022-12-24T19:44:26.458Z,101198.78
2022-12-24T19:46:57.043Z,101197.94
2022-12-24T19:49:27.471Z,101195.47
2022-12-24T19:51:57.334Z,101204.16
2022-12-24T19:54:30.411Z,101212.53
2022-12-24T19:57:00.734Z,101205.34
2022-12-24T19:59:31.170Z,101203.69
2022-12-24T20:02:01.556Z,101207.63
2022-12-24T20:04:32.103Z,101204.00
2022-12-24T20:07:03.759Z,101208.78
2022-12-24T20:09:36.064Z,101210.44
2022-12-24T20:12:07.168Z,101219.97
2022-12-24T20:14:37.504Z,101223.56
2022-12-24T20:17:08.063Z,101216.03
2022-12-24T20:19:37.895Z,101217.97
2022-12-24T20:22:10.471Z,101218.47
2022-12-24T20:24:42.688Z,101223.25
2022-12-24T20:27:12.438Z,101216.03
2022-12-24T20:29:42.794Z,101203.69
2022-12-24T20:32:13.580Z,101204.00
2022-12-24T20:34:43.251Z,101202.34
2022-12-24T20:37:13.096Z,101209.09
2022-12-24T20:39:45.076Z,101204.69
2022-12-24T20:42:14.889Z,101206.13
2022-12-24T20:44:44.858Z,101216.84
2022-12-24T20:47:15.513Z,101209.13
2022-12-24T20:49:46.399Z,101199.88
2022-12-24T20:52:16.299Z,101203.03
2022-12-24T20:54:48.849Z,101202.22
2022-12-24T20:57:24.700Z,101204.19
2022-12-24T20:59:55.661Z,101212.56
2022-12-24T21:02:26.322Z,101209.78
2022-12-24T21:05:01.853Z,101203.69
2022-12-24T21:07:32.978Z,101212.91
2022-12-24T21:10:05.453Z,101210.41
2022-12-24T21:12:57.290Z,101206.31
2022-12-24T21:15:30.614Z,101208.63
2022-12-24T21:18:01.597Z,101209.28
2022-12-24T21:20:31.771Z,101211.59
2022-12-24T21:23:02.441Z,101214.38
2022-12-24T21:25:35.341Z,101218.81
2022-12-24T21:28:05.771Z,101221.13
2022-12-24T21:30:35.736Z,101219.13
2022-12-24T21:33:05.936Z,101213.53
2022-12-24T21:35:36.472Z,101212.75
2022-12-24T21:38:06.799Z,101212.75
2022-12-24T21:40:40.750Z,101223.91
2022-12-24T21:43:11.208Z,101215.53
2022-12-24T21:45:43.832Z,101218.31
2022-12-24T21:48:27.012Z,101211.09
2022-12-24T21:51:10.163Z,101215.38
2022-12-24T21:53:56.767Z,101219.31
2022-12-24T21:56:29.183Z,101213.72
2022-12-24T21:58:57.665Z,101205.34
2022-12-24T22:01:27.664Z,101206.47
2022-12-24T22:03:58.071Z,101206.16
2022-12-24T22:06:45.755Z,101203.69
2022-12-24T22:09:32.715Z,101197.59
2022-12-24T22:12:05.183Z,101197.09
2022-12-24T22:14:35.337Z,101190.69
2022-12-24T22:17:04.995Z,101191.03
2022-12-24T22:19:35.401Z,101191.03
2022-12-24T22:22:06.029Z,101188.56
2022-12-24T22:24:36.754Z,101193.34
2022-12-24T22:27:08.696Z,101184.13
2022-12-24T22:29:39.103Z,101188.09
2022-12-24T22:32:09.979Z,101186.44
2022-12-24T22:34:40.338Z,101176.06
2022-12-24T22:37:10.211Z,101181.66
2022-12-24T22:39:41.205Z,101188.09
2022-12-24T22:42:13.199Z,101186.59
2022-12-24T22:44:43.225Z,101188.25
2022-12-24T22:47:12.866Z,101178.72
2022-12-24T22:49:43.287Z,101185.91
2022-12-24T22:52:14.404Z,101180.34
2022-12-24T22:54:44.501Z,101183.97
2022-12-24T22:57:16.213Z,101183.97
2022-12-24T22:59:47.603Z,101182.31
2022-12-24T23:02:24.017Z,101187.56
2022-12-24T23:04:58.808Z,101187.56
2022-12-24T23:07:28.965Z,101187.25
2022-12-24T23:10:00.222Z,101189.72
2022-12-24T23:12:48.711Z,101192.50
2022-12-24T23:15:19.275Z,101196.44
2022-12-24T23:17:52.048Z,101188.56
2022-12-24T23:20:22.072Z,101189.72
2022-12-24T23:22:52.449Z,101178.88
2022-12-24T23:25:22.480Z,101182.81
2022-12-24T23:27:54.650Z,101190.38
2022-12-24T23:30:24.807Z,101173.13
2022-12-24T23:32:54.586Z,101173.94
2022-12-24T23:35:24.805Z,101173.94
2022-12-24T23:37:54.533Z,101173.44
2022-12-24T23:40:24.847Z,101180.66
2022-12-24T23:42:56.827Z,101181.81
2022-12-24T23:45:28.463Z,101188.25
2022-12-24T23:47:58.816Z,101188.25
2022-12-24T23:50:28.720Z,101181.16
2022-12-24T23:52:59.006Z,101175.59
2022-12-24T23:55:30.321Z,101179.53
2022-12-24T23:58:02.701Z,101170.63
